Time;durP1;ratioP1;P1;durP2;ratioP2;P2;SDS_P1;SDS_P2;PMS_P1;PMS_P2;Temp;Humidity;BMP_temperature;BMP_pressure;BME280_temperature;BME280_humidity;BME280_pressure;Samples;Min_cycle;Max_cycle;Signal;HPM_P1;HPM_P2
2023/06/27 00:02:20;;;;;;;12.20;10.00;;;;;;;17.40;100.00;100262.38;105203;1256;72803;-64
2023/06/27 00:04:49;;;;;;;12.60;10.70;;;;;;;17.41;100.00;100263.02;105164;1257;83423;-64
2023/06/27 00:07:17;;;;;;;12.00;10.70;;;;;;;17.40;100.00;100267.70;105127;1262;73563;-64
2023/06/27 00:09:45;;;;;;;14.20;10.30;;;;;;;17.37;100.00;100286.57;105139;1256;69081;-65
2023/06/27 00:12:14;;;;;;;13.40;10.60;;;;;;;17.35;100.00;100288.70;105227;1256;69095;-64
2023/06/27 00:14:44;;;;;;;11.30;10.10;;;;;;;17.35;100.00;100283.41;105172;1256;73720;-65
2023/06/27 00:17:14;;;;;;;11.50;10.20;;;;;;;17.36;100.00;100286.53;105190;1256;82908;-65
2023/06/27 00:19:46;;;;;;;12.40;10.10;;;;;;;17.33;100.00;100284.42;105182;1256;73834;-65
2023/06/27 00:22:14;;;;;;;12.30;10.30;;;;;;;17.33;100.00;100285.46;105165;1256;69214;-65
2023/06/27 00:24:43;;;;;;;12.50;10.60;;;;;;;17.34;100.00;100287.67;105220;1262;69193;-65
2023/06/27 00:27:15;;;;;;;;;;;;;;;17.32;100.00;100294.38;105182;1256;73874;-65
2023/06/27 00:29:44;;;;;;;15.80;10.60;;;;;;;17.27;100.00;100295.23;105226;1262;82484;-66
2023/06/27 00:32:12;;;;;;;11.80;10.50;;;;;;;17.26;100.00;100295.80;105082;1260;74016;-65
2023/06/27 00:34:41;;;;;;;12.60;10.30;;;;;;;17.27;100.00;100295.62;105158;1259;69161;-65
2023/06/27 00:37:09;;;;;;;13.80;11.00;;;;;;;17.27;100.00;100298.23;105190;1262;69194;-65
2023/06/27 00:39:40;;;;;;;14.20;11.80;;;;;;;17.26;100.00;100306.58;105134;1261;74150;-65
2023/06/27 00:42:08;;;;;;;18.20;13.40;;;;;;;17.25;100.00;100309.52;105219;1256;83333;-65
2023/06/27 00:44:37;;;;;;;15.70;13.50;;;;;;;17.22;100.00;100305.80;105141;1261;72311;-66
2023/06/27 00:47:06;;;;;;;19.60;13.40;;;;;;;17.21;100.00;100306.07;105215;1260;69106;-66
2023/06/27 00:49:36;;;;;;;15.10;13.60;;;;;;;17.20;100.00;100309.49;105181;1262;69170;-66
2023/06/27 00:52:06;;;;;;;18.90;14.40;;;;;;;17.19;100.00;100311.50;105185;1261;73762;-66
2023/06/27 00:54:34;;;;;;;18.00;14.10;;;;;;;17.17;100.00;100309.67;105212;1260;82507;-66
2023/06/27 00:57:02;;;;;;;18.60;14.90;;;;;;;17.16;100.00;100310.98;105175;1256;72620;-66
2023/06/27 00:59:35;;;;;;;20.90;15.00;;;;;;;17.15;100.00;100307.51;105252;1257;69121;-66
2023/06/27 01:02:04;;;;;;;16.80;15.00;;;;;;;17.14;100.00;100310.20;105181;1259;69167;-66
2023/06/27 01:04:32;;;;;;;18.00;14.90;;;;;;;17.15;100.00;100316.84;105178;1262;73463;-66
2023/06/27 01:07:07;;;;;;;18.90;13.90;;;;;;;17.13;100.00;100310.42;105108;1262;83342;-66
2023/06/27 01:09:52;;;;;;;16.90;14.40;;;;;;;17.13;100.00;100308.13;105172;1261;72764;-66
2023/06/27 01:12:25;;;;;;;15.70;13.90;;;;;;;17.14;100.00;100305.44;105162;1262;69248;-66
2023/06/27 01:14:57;;;;;;;17.10;13.40;;;;;;;17.17;100.00;100302.79;105195;1260;69202;-66
2023/06/27 01:17:27;;;;;;;15.90;14.00;;;;;;;17.19;100.00;100299.14;105178;1261;72811;-66
2023/06/27 01:19:56;;;;;;;20.20;13.90;;;;;;;17.19;100.00;100297.73;105160;1256;82737;-66
2023/06/27 01:22:32;;;;;;;19.80;14.20;;;;;;;17.20;100.00;100298.71;105098;1265;73032;-65
2023/06/27 01:25:02;;;;;;;19.10;13.50;;;;;;;17.20;100.00;100300.46;105147;1262;69188;-66
2023/06/27 01:27:31;;;;;;;16.70;13.90;;;;;;;17.18;100.00;100300.61;105138;1262;69106;-66
2023/06/27 01:29:59;;;;;;;17.70;13.00;;;;;;;17.17;100.00;100294.64;105175;1256;74312;-66
2023/06/27 01:32:36;;;;;;;18.20;13.40;;;;;;;17.18;100.00;100293.73;105220;1260;83092;-66
2023/06/27 01:35:20;;;;;;;18.60;12.80;;;;;;;17.13;100.00;100294.90;105216;1261;73894;-66
2023/06/27 01:37:56;;;;;;;16.20;12.40;;;;;;;17.15;100.00;100301.50;105202;1258;69081;-66
2023/06/27 01:40:28;;;;;;;12.40;11.10;;;;;;;17.14;100.00;100304.89;105233;1257;69164;-66
2023/06/27 01:43:06;;;;;;;14.70;10.40;;;;;;;17.13;100.00;100308.31;105203;1257;74091;-66
2023/06/27 01:45:36;;;;;;;14.70;10.20;;;;;;;17.11;100.00;100311.31;105161;1260;82585;-66
2023/06/27 01:48:06;;;;;;;14.80;10.40;;;;;;;17.11;100.00;100314.48;105138;1263;73931;-66
2023/06/27 01:50:35;;;;;;;17.30;11.40;;;;;;;17.11;100.00;100315.54;105167;1262;69264;-66
2023/06/27 01:53:05;;;;;;;13.40;10.60;;;;;;;17.09;100.00;100314.23;105123;1261;69193;-66
2023/06/27 01:55:33;;;;;;;14.10;11.00;;;;;;;17.07;100.00;100312.41;105153;1256;73734;-66
2023/06/27 01:58:01;;;;;;;15.40;10.40;;;;;;;17.08;100.00;100316.08;105088;1260;83407;-66
2023/06/27 02:00:30;;;;;;;13.30;9.30;;;;;;;17.08;100.00;100315.73;105133;1262;73645;-66
2023/06/27 02:02:58;;;;;;;15.30;10.30;;;;;;;17.09;100.00;100316.53;105201;1257;69172;-66
2023/06/27 02:05:27;;;;;;;13.20;9.80;;;;;;;17.10;100.00;100310.09;105137;1262;69237;-66
2023/06/27 02:07:56;;;;;;;17.00;9.80;;;;;;;17.11;100.00;100310.76;105169;1256;73897;-67
2023/06/27 02:10:25;;;;;;;14.20;10.00;;;;;;;17.10;100.00;100305.54;105175;1262;83264;-67
2023/06/27 02:12:54;;;;;;;15.60;10.40;;;;;;;17.10;100.00;100305.18;105088;1260;72805;-66
2023/06/27 02:15:22;;;;;;;15.80;10.40;;;;;;;17.11;100.00;100314.69;105125;1256;69160;-66
2023/06/27 02:17:50;;;;;;;14.90;10.20;;;;;;;17.10;100.00;100311.52;105164;1259;69119;-66
2023/06/27 02:20:22;;;;;;;14.20;9.70;;;;;;;17.09;100.00;100306.84;105227;1256;74332;-66
2023/06/27 02:22:50;;;;;;;17.00;11.30;;;;;;;17.09;100.00;100300.98;105143;1261;83260;-67
2023/06/27 02:25:18;;;;;;;13.50;10.20;;;;;;;17.11;100.00;100303.04;105197;1263;73596;-66
2023/06/27 02:27:46;;;;;;;15.90;10.10;;;;;;;17.09;100.00;100305.60;105207;1257;69166;-66
2023/06/27 02:30:15;;;;;;;14.20;10.80;;;;;;;17.09;100.00;100304.19;105182;1259;69229;-66
2023/06/27 02:32:46;;;;;;;15.40;10.10;;;;;;;17.09;100.00;100308.58;105108;1260;72808;-66
2023/06/27 02:35:16;;;;;;;13.70;9.90;;;;;;;17.09;100.00;100315.84;105148;1262;82903;-66
2023/06/27 02:37:44;;;;;;;15.00;10.30;;;;;;;17.07;100.00;100327.45;105157;1262;73780;-66
2023/06/27 02:40:12;;;;;;;17.60;9.80;;;;;;;17.05;100.00;100330.90;105143;1262;69867;-66
2023/06/27 02:42:41;;;;;;;13.60;10.40;;;;;;;17.04;100.00;100337.32;105174;1258;69116;-66
2023/06/27 02:45:10;;;;;;;13.40;9.60;;;;;;;17.04;100.00;100334.52;105175;1261;73676;-66
2023/06/27 02:47:38;;;;;;;13.20;9.60;;;;;;;17.03;100.00;100333.73;105173;1261;83708;-66
2023/06/27 02:50:07;;;;;;;13.70;8.60;;;;;;;17.01;100.00;100329.42;105125;1263;72937;-66
2023/06/27 02:52:35;;;;;;;13.50;9.60;;;;;;;16.97;100.00;100330.76;105157;1262;69242;-65
2023/06/27 02:55:04;;;;;;;16.50;9.90;;;;;;;16.94;100.00;100332.70;105103;1261;69275;-65
2023/06/27 02:57:33;;;;;;;14.80;8.80;;;;;;;16.90;100.00;100342.15;105209;1262;73064;-65
2023/06/27 03:00:03;;;;;;;12.30;8.40;;;;;;;16.86;100.00;100348.59;105201;1260;83236;-65
2023/06/27 03:02:32;;;;;;;;;;;;;;;16.82;100.00;100347.58;105165;1261;73829;-65
2023/06/27 03:05:00;;;;;;;14.10;7.80;;;;;;;16.78;100.00;100352.98;105237;1261;69192;-65
2023/06/27 03:07:29;;;;;;;12.00;7.60;;;;;;;16.71;100.00;100356.69;105193;1261;69224;-65
2023/06/27 03:09:58;;;;;;;11.00;7.10;;;;;;;16.67;100.00;100358.73;105135;1261;74264;-65
2023/06/27 03:12:26;;;;;;;14.30;7.20;;;;;;;16.66;100.00;100365.66;105139;1260;83428;-65
2023/06/27 03:14:55;;;;;;;13.60;7.60;;;;;;;16.63;100.00;100363.09;105185;1262;73338;-65
2023/06/27 03:17:23;;;;;;;10.70;7.30;;;;;;;16.59;100.00;100366.10;105203;1261;69240;-65
2023/06/27 03:19:51;;;;;;;11.10;7.30;;;;;;;16.59;100.00;100370.39;105186;1260;69212;-65
2023/06/27 03:22:20;;;;;;;12.00;6.90;;;;;;;16.54;100.00;100370.30;105188;1261;74352;-65
2023/06/27 03:24:48;;;;;;;12.80;7.50;;;;;;;16.52;100.00;100372.40;105158;1260;82562;-64
2023/06/27 03:27:17;;;;;;;9.30;6.30;;;;;;;16.49;100.00;100380.35;105153;1260;73053;-65
2023/06/27 03:29:47;;;;;;;15.00;6.90;;;;;;;16.46;100.00;100386.17;105180;1260;69205;-64
2023/06/27 03:32:16;;;;;;;9.70;6.20;;;;;;;16.41;100.00;100386.80;105177;1260;69114;-64
2023/06/27 03:34:47;;;;;;;10.30;6.10;;;;;;;16.39;100.00;100385.20;105167;1260;74203;-64
2023/06/27 03:37:15;;;;;;;12.60;6.40;;;;;;;16.37;100.00;100388.11;105155;1263;83386;-64
2023/06/27 03:39:44;;;;;;;7.70;5.60;;;;;;;16.34;100.00;100390.78;105119;1262;72756;-64
2023/06/27 03:42:12;;;;;;;7.80;5.10;;;;;;;16.26;100.00;100391.77;105184;1261;69555;-64
2023/06/27 03:44:40;;;;;;;9.80;4.80;;;;;;;16.18;100.00;100400.89;105150;1263;69259;-62
2023/06/27 03:47:09;;;;;;;7.90;4.80;;;;;;;16.14;100.00;100401.55;105215;1257;74037;-65
2023/06/27 03:49:37;;;;;;;6.20;4.70;;;;;;;16.10;100.00;100411.46;105245;1260;83107;-65
2023/06/27 03:52:06;;;;;;;8.40;5.70;;;;;;;16.04;100.00;100414.06;105176;1260;73231;-64
2023/06/27 03:54:34;;;;;;;7.10;4.90;;;;;;;15.99;100.00;100415.43;105199;1262;69225;-62
2023/06/27 03:57:03;;;;;;;9.40;5.00;;;;;;;15.93;100.00;100418.29;105311;1259;69305;-64
2023/06/27 03:59:32;;;;;;;12.90;4.60;;;;;;;15.87;100.00;100415.82;105392;1258;73343;-62
2023/06/27 04:02:01;;;;;;;8.80;4.70;;;;;;;15.83;100.00;100415.30;105406;1255;81711;-63
2023/06/27 04:04:29;;;;;;;7.50;4.70;;;;;;;15.82;100.00;100415.93;105406;1259;73720;-63
2023/06/27 04:06:57;;;;;;;6.80;4.70;;;;;;;15.78;99.99;100421.07;105601;1254;70819;-63
2023/06/27 04:09:26;;;;;;;8.40;4.10;;;;;;;15.75;100.00;100415.98;105628;1257;69189;-64
2023/06/27 04:11:54;;;;;;;12.20;4.50;;;;;;;15.71;99.88;100415.52;105474;1255;73157;-63
2023/06/27 04:14:24;;;;;;;8.80;4.70;;;;;;;15.67;99.85;100419.41;105634;1258;82541;-63
2023/06/27 04:16:55;;;;;;;9.10;4.00;;;;;;;15.60;99.32;100421.39;105629;1255;71733;-63
2023/06/27 04:19:24;;;;;;;7.40;4.30;;;;;;;15.52;99.18;100429.08;105665;1259;69190;-64
2023/06/27 04:21:54;;;;;;;6.00;4.10;;;;;;;15.47;99.08;100432.02;105516;1260;69269;-63
2023/06/27 04:24:22;;;;;;;9.40;4.10;;;;;;;15.41;99.17;100433.57;105568;1254;74405;-63
2023/06/27 04:26:50;;;;;;;9.60;4.00;;;;;;;15.37;99.30;100431.48;105714;1256;83660;-64
2023/06/27 04:29:19;;;;;;;6.60;3.60;;;;;;;15.36;99.57;100434.17;105671;1260;73385;-64
2023/06/27 04:31:47;;;;;;;12.10;4.40;;;;;;;15.36;99.69;100433.85;105636;1259;69078;-63
2023/06/27 04:34:16;;;;;;;9.00;4.30;;;;;;;15.36;99.47;100431.36;105484;1258;69143;-63
2023/06/27 04:36:45;;;;;;;8.00;3.90;;;;;;;15.37;99.73;100436.44;105611;1254;74061;-63
2023/06/27 04:39:13;;;;;;;5.70;3.50;;;;;;;15.37;99.50;100439.23;105693;1259;82056;-63
2023/06/27 04:41:42;;;;;;;7.30;3.40;;;;;;;15.37;99.38;100433.61;105612;1257;74331;-63
2023/06/27 04:44:10;;;;;;;5.30;3.50;;;;;;;15.37;99.48;100430.92;105638;1259;69094;-63
2023/06/27 04:46:39;;;;;;;7.20;3.90;;;;;;;15.39;99.53;100434.40;105698;1258;69126;-63
2023/06/27 04:49:08;;;;;;;7.40;3.60;;;;;;;15.41;99.44;100434.77;105561;1259;73154;-63
2023/06/27 04:51:36;;;;;;;6.40;3.70;;;;;;;15.43;99.26;100429.80;105647;1257;83077;-63
2023/06/27 04:54:05;;;;;;;6.90;3.80;;;;;;;15.43;98.88;100430.14;105626;1254;73779;-63
2023/06/27 04:56:33;;;;;;;6.10;3.40;;;;;;;15.40;98.69;100432.36;105731;1258;69065;-64
2023/06/27 04:59:02;;;;;;;8.90;4.30;;;;;;;15.41;98.87;100435.87;105613;1256;69189;-64
2023/06/27 05:01:31;;;;;;;8.10;3.60;;;;;;;15.44;99.09;100439.92;105853;1258;72053;-64
2023/06/27 05:04:04;;;;;;;7.50;3.60;;;;;;;15.47;99.16;100439.95;105607;1254;83665;-64
2023/06/27 05:06:33;;;;;;;9.90;4.00;;;;;;;15.51;99.52;100441.80;105787;1258;72585;-63
2023/06/27 05:09:03;;;;;;;5.90;3.00;;;;;;;15.54;99.18;100441.64;105660;1254;69118;-63
2023/06/27 05:11:32;;;;;;;12.10;4.20;;;;;;;15.57;99.18;100440.95;105629;1254;69182;-65
2023/06/27 05:14:00;;;;;;;8.00;3.30;;;;;;;15.61;99.15;100442.65;105624;1254;74216;-64
2023/06/27 05:16:29;;;;;;;8.40;3.40;;;;;;;15.65;99.05;100440.64;105636;1259;82255;-65
2023/06/27 05:18:57;;;;;;;11.00;3.30;;;;;;;15.67;98.55;100441.24;105656;1258;72985;-64
2023/06/27 05:21:26;;;;;;;11.70;3.90;;;;;;;15.69;98.37;100442.38;105605;1254;67929;-65
2023/06/27 05:23:58;;;;;;;5.50;2.90;;;;;;;15.73;98.45;100443.56;105539;1258;69193;-66
2023/06/27 05:26:26;;;;;;;5.70;3.10;;;;;;;15.77;98.15;100447.77;105788;1254;74164;-66
2023/06/27 05:28:57;;;;;;;7.60;2.80;;;;;;;15.80;97.87;100446.13;105688;1258;83228;-66
2023/06/27 05:31:27;;;;;;;7.10;2.40;;;;;;;15.85;97.99;100449.73;105538;1257;74068;-66
2023/06/27 05:33:56;;;;;;;8.80;3.10;;;;;;;15.90;97.47;100451.39;105575;1254;69102;-66
2023/06/27 05:36:24;;;;;;;8.80;2.80;;;;;;;15.98;97.65;100450.01;105640;1257;70544;-66
2023/06/27 05:38:52;;;;;;;7.70;3.20;;;;;;;16.10;97.38;100451.12;105709;1254;73066;-65
2023/06/27 05:41:21;;;;;;;9.20;3.00;;;;;;;16.18;97.06;100452.04;105473;1254;83811;-65
2023/06/27 05:43:49;;;;;;;8.00;3.00;;;;;;;16.21;96.37;100452.52;105496;1254;73457;-64
2023/06/27 05:46:17;;;;;;;13.10;3.00;;;;;;;16.24;96.38;100455.39;105537;1258;69051;-64
2023/06/27 05:48:46;;;;;;;8.70;2.80;;;;;;;16.26;96.15;100457.52;105655;1254;69120;-65
2023/06/27 05:51:14;;;;;;;6.90;3.20;;;;;;;16.27;95.63;100457.16;105474;1257;73984;-62
2023/06/27 05:53:42;;;;;;;10.20;2.80;;;;;;;16.27;95.48;100457.85;105553;1257;83193;-62
2023/06/27 05:56:11;;;;;;;9.70;2.80;;;;;;;16.29;95.43;100458.80;105466;1255;73373;-62
2023/06/27 05:58:39;;;;;;;6.70;2.60;;;;;;;16.30;95.07;100458.60;105637;1258;69087;-62
2023/06/27 06:01:08;;;;;;;8.50;2.70;;;;;;;16.29;94.94;100461.77;105732;1257;69205;-63
2023/06/27 06:03:36;;;;;;;10.00;3.10;;;;;;;16.29;94.84;100462.48;105574;1254;74496;-63
2023/06/27 06:06:05;;;;;;;8.60;3.00;;;;;;;16.33;95.22;100465.63;105748;1257;83431;-65
2023/06/27 06:08:33;;;;;;;9.00;3.20;;;;;;;16.38;95.33;100463.70;105489;1258;71832;-65
2023/06/27 06:11:01;;;;;;;5.90;2.80;;;;;;;16.44;95.31;100465.46;105559;1253;69215;-65
2023/06/27 06:13:30;;;;;;;9.60;3.00;;;;;;;16.48;94.68;100472.08;105702;1254;69828;-65
2023/06/27 06:15:58;;;;;;;7.00;3.30;;;;;;;16.49;93.98;100466.07;105661;1256;73163;-60
2023/06/27 06:18:27;;;;;;;8.00;2.90;;;;;;;16.51;93.71;100468.60;105663;1257;83251;-62
2023/06/27 06:20:55;;;;;;;7.80;2.70;;;;;;;16.53;93.40;100466.71;105617;1257;72605;-62
2023/06/27 06:23:24;;;;;;;8.20;3.00;;;;;;;16.55;93.10;100468.88;109067;1253;66972;-63
2023/06/27 06:25:52;;;;;;;9.80;3.00;;;;;;;16.59;93.02;100468.81;105595;1255;69941;-67
2023/06/27 06:28:20;;;;;;;5.80;2.50;;;;;;;16.65;92.94;100470.02;105408;1254;72113;-64
2023/06/27 06:30:49;;;;;;;9.30;2.50;;;;;;;16.70;92.38;100472.50;105224;1257;82823;-66
2023/06/27 06:33:17;;;;;;;5.20;2.10;;;;;;;16.76;92.02;100471.34;105886;1257;73040;-66
2023/06/27 06:35:46;;;;;;;5.10;2.10;;;;;;;16.82;92.07;100470.05;105426;1254;69212;-66
2023/06/27 06:38:14;;;;;;;7.50;2.50;;;;;;;16.91;91.73;100472.16;105509;1258;69125;-66
2023/06/27 06:40:43;;;;;;;8.40;2.20;;;;;;;16.99;91.26;100466.69;105455;1255;73962;-66
2023/06/27 06:43:12;;;;;;;7.60;2.40;;;;;;;17.12;90.75;100469.02;105479;1258;82604;-66
2023/06/27 06:45:40;;;;;;;6.40;2.60;;;;;;;17.28;90.33;100470.15;105416;1257;73986;-66
2023/06/27 06:48:09;;;;;;;6.40;1.90;;;;;;;17.39;89.69;100476.15;105468;1257;69225;-65
2023/06/27 06:50:37;;;;;;;9.40;2.30;;;;;;;17.42;88.51;100471.58;105515;1260;69138;-65
2023/06/27 06:53:06;;;;;;;9.70;2.10;;;;;;;17.45;88.06;100475.98;105486;1258;73026;-65
2023/06/27 06:55:34;;;;;;;4.70;1.80;;;;;;;17.52;87.81;100477.31;105508;1257;83589;-65
2023/06/27 06:58:04;;;;;;;8.00;1.90;;;;;;;17.58;87.59;100476.56;105480;1258;73550;-66
2023/06/27 07:00:32;;;;;;;3.50;1.80;;;;;;;17.59;87.33;100478.77;105455;1254;69129;-66
2023/06/27 07:03:00;;;;;;;7.40;2.30;;;;;;;17.60;87.02;100482.80;105433;1257;69071;-66
2023/06/27 07:05:30;;;;;;;8.20;1.90;;;;;;;17.56;86.46;100485.15;105479;1258;74031;-65
2023/06/27 07:07:58;;;;;;;4.60;1.90;;;;;;;17.53;86.30;100482.87;105457;1254;83362;-65
2023/06/27 07:10:26;;;;;;;8.20;2.30;;;;;;;17.50;85.54;100485.20;105456;1257;73834;-65
2023/06/27 07:12:54;;;;;;;5.80;2.00;;;;;;;17.47;85.41;100491.21;105225;1253;286930;-65
2023/06/27 07:15:23;;;;;;;3.70;1.60;;;;;;;17.45;84.89;100491.33;105445;1253;69056;-65
2023/06/27 07:17:52;;;;;;;5.10;1.70;;;;;;;17.50;84.79;100488.94;105506;1254;73047;-65
2023/06/27 07:20:22;;;;;;;7.10;2.40;;;;;;;17.54;84.55;100491.68;105480;1254;82673;-65
2023/06/27 07:22:51;;;;;;;6.10;1.90;;;;;;;17.55;84.02;100492.25;105463;1257;73860;-65
2023/06/27 07:25:20;;;;;;;5.10;1.90;;;;;;;17.58;83.88;100493.35;105445;1254;69171;-65
2023/06/27 07:27:48;;;;;;;6.10;2.00;;;;;;;17.66;83.82;100486.80;105452;1254;69211;-65
2023/06/27 07:30:16;;;;;;;6.20;2.20;;;;;;;17.78;83.68;100488.52;105414;1257;72866;-65
2023/06/27 07:32:45;;;;;;;8.00;2.50;;;;;;;17.88;83.31;100487.68;105459;1257;82197;-65
2023/06/27 07:35:14;;;;;;;16.50;1.80;;;;;;;17.98;83.16;100488.63;105478;1253;73511;-65
2023/06/27 07:37:42;;;;;;;6.90;2.00;;;;;;;18.03;82.47;100493.61;105427;1254;69189;-65
2023/06/27 07:40:11;;;;;;;10.80;2.40;;;;;;;18.07;82.27;100488.37;105427;1253;69191;-65
2023/06/27 07:42:39;;;;;;;5.70;1.70;;;;;;;18.08;81.96;100485.30;105487;1257;72720;-64
2023/06/27 07:45:10;;;;;;;4.10;1.90;;;;;;;18.11;81.83;100492.52;105499;1253;82237;-65
2023/06/27 07:47:38;;;;;;;8.80;2.10;;;;;;;18.17;81.30;100484.36;105468;1257;73783;-65
2023/06/27 07:50:07;;;;;;;5.70;1.80;;;;;;;18.27;81.85;100481.73;105375;1254;69116;-65
2023/06/27 07:52:35;;;;;;;5.90;1.90;;;;;;;18.38;81.35;100480.77;105489;1256;69284;-65
2023/06/27 07:55:05;;;;;;;7.80;1.90;;;;;;;18.37;80.28;100480.85;105404;1253;73916;-65
2023/06/27 07:57:33;;;;;;;7.90;2.00;;;;;;;18.33;79.58;100477.92;105477;1254;82617;-65
2023/06/27 08:00:01;;;;;;;7.40;2.20;;;;;;;18.46;79.85;100479.86;105461;1257;71743;-66
2023/06/27 08:02:39;;;;;;;6.40;2.20;;;;;;;18.62;79.21;100473.80;105339;1254;69070;-65
2023/06/27 08:05:08;;;;;;;11.50;1.80;;;;;;;18.69;78.85;100471.41;105438;1257;69206;-65
2023/06/27 08:07:36;;;;;;;5.30;2.30;;;;;;;18.74;78.49;100474.98;105450;1257;72254;-65
2023/06/27 08:10:07;;;;;;;9.00;2.10;;;;;;;18.72;78.00;100475.08;105378;1257;82243;-65
2023/06/27 08:12:35;;;;;;;;;;;;;;;18.70;77.58;100478.77;105374;1253;73766;-65
2023/06/27 08:15:04;;;;;;;4.60;2.20;;;;;;;18.73;77.47;100468.82;105483;1254;69180;-65
2023/06/27 08:17:33;;;;;;;5.10;2.00;;;;;;;18.86;77.60;100466.55;105398;1254;69307;-65
2023/06/27 08:20:02;;;;;;;5.50;1.60;;;;;;;18.96;76.81;100462.63;105478;1253;73971;-65
2023/06/27 08:22:30;;;;;;;6.30;2.00;;;;;;;19.02;76.31;100458.52;105466;1254;83682;-65
2023/06/27 08:24:59;;;;;;;7.00;1.70;;;;;;;19.05;75.89;100461.14;105401;1253;72607;-65
2023/06/27 08:27:27;;;;;;;5.70;1.70;;;;;;;19.05;75.30;100459.66;105327;1253;69077;-65
2023/06/27 08:29:56;;;;;;;6.50;2.00;;;;;;;19.11;75.28;100469.52;105437;1257;69147;-65
2023/06/27 08:32:24;;;;;;;6.60;2.10;;;;;;;19.18;74.35;100464.98;105481;1254;74099;-65
2023/06/27 08:34:52;;;;;;;5.30;1.90;;;;;;;19.23;74.05;100458.95;105484;1254;82885;-66
2023/06/27 08:37:21;;;;;;;11.80;2.10;;;;;;;19.27;73.73;100457.44;105492;1254;73502;-64
2023/06/27 08:39:51;;;;;;;5.50;1.90;;;;;;;19.20;73.68;100454.89;105441;1254;69180;-64
2023/06/27 08:42:20;;;;;;;8.50;1.80;;;;;;;19.17;73.26;100451.56;105417;1257;69114;-64
2023/06/27 08:44:48;;;;;;;8.60;2.40;;;;;;;19.19;73.05;100446.48;105372;1253;73586;-64
2023/06/27 08:47:19;;;;;;;5.50;1.90;;;;;;;19.27;72.98;100447.50;105426;1257;83269;-65
2023/06/27 08:49:51;;;;;;;7.40;1.70;;;;;;;19.42;72.72;100447.42;105432;1258;73942;-65
2023/06/27 08:52:20;;;;;;;10.20;2.00;;;;;;;19.54;72.32;100450.48;105379;1253;69192;-65
2023/06/27 08:54:53;;;;;;;5.30;1.90;;;;;;;19.59;71.62;100450.98;105475;1253;69068;-64
2023/06/27 08:57:27;;;;;;;8.90;1.60;;;;;;;19.56;70.80;100443.89;105470;1257;74208;-64
2023/06/27 08:59:55;;;;;;;5.70;1.80;;;;;;;19.54;69.75;100447.09;105387;1257;83451;-65
2023/06/27 09:02:26;;;;;;;3.00;1.50;;;;;;;19.52;69.11;100436.08;105483;1254;72904;-64
2023/06/27 09:04:55;;;;;;;6.80;1.70;;;;;;;19.59;68.97;100436.06;105443;1254;69512;-64
2023/06/27 09:07:23;;;;;;;7.50;1.60;;;;;;;19.54;67.99;100432.20;105499;1257;69158;-64
2023/06/27 09:09:52;;;;;;;6.70;1.90;;;;;;;19.48;68.35;100437.07;105291;1254;73157;-64
2023/06/27 09:12:21;;;;;;;3.20;1.40;;;;;;;19.54;68.25;100427.94;105225;1260;83211;-64
2023/06/27 09:14:50;;;;;;;5.60;1.70;;;;;;;19.62;67.72;100431.41;105312;1255;73273;-64
2023/06/27 09:17:18;;;;;;;4.60;1.30;;;;;;;19.71;67.16;100426.76;105372;1254;69196;-64
2023/06/27 09:19:46;;;;;;;4.90;1.30;;;;;;;19.77;66.88;100420.21;105282;1258;69065;-64
2023/06/27 09:22:17;;;;;;;6.60;2.10;;;;;;;19.85;66.77;100420.36;105307;1254;73801;-65
2023/06/27 09:24:46;;;;;;;5.90;1.70;;;;;;;19.93;66.48;100434.45;105242;1254;83747;-64
2023/06/27 09:27:31;;;;;;;4.00;1.40;;;;;;;20.01;66.10;100426.70;105391;1258;72744;-64
2023/06/27 09:30:01;;;;;;;5.70;1.40;;;;;;;20.15;64.18;100426.39;105380;1256;69176;-64
2023/06/27 09:32:30;;;;;;;3.40;1.40;;;;;;;20.24;64.02;100428.23;105359;1254;69122;-65
2023/06/27 09:35:03;;;;;;;7.40;1.20;;;;;;;20.38;63.83;100417.87;105296;1254;74077;-64
2023/06/27 09:37:32;;;;;;;4.60;1.80;;;;;;;20.48;62.67;100420.09;105233;1258;83511;-64
2023/06/27 09:40:27;;;;;;;6.20;1.70;;;;;;;20.59;62.95;100424.77;104848;1264;72631;-65
2023/06/27 09:42:56;;;;;;;3.80;1.60;;;;;;;20.78;62.53;100421.73;105000;1259;69257;-65
2023/06/27 09:45:27;;;;;;;4.30;1.60;;;;;;;20.82;61.41;100420.13;105019;1260;69196;-64
2023/06/27 09:47:56;;;;;;;3.70;1.20;;;;;;;20.80;60.68;100419.79;105015;1261;73216;-64
2023/06/27 09:50:29;;;;;;;6.60;1.40;;;;;;;20.75;60.24;100414.70;105085;1260;83400;-64
2023/06/27 09:53:00;;;;;;;12.10;2.10;;;;;;;20.88;60.96;100420.24;104957;1261;74065;-65
2023/06/27 09:55:28;;;;;;;5.00;1.40;;;;;;;21.13;60.94;100417.27;104895;1262;69362;-65
2023/06/27 09:57:57;;;;;;;4.50;1.50;;;;;;;21.36;60.51;100414.20;105086;1260;69209;-65
2023/06/27 10:00:28;;;;;;;5.30;1.60;;;;;;;21.37;60.02;100413.54;105427;1258;71921;-65
2023/06/27 10:02:57;;;;;;;7.40;1.30;;;;;;;21.20;58.79;100417.09;105376;1254;82512;-64
2023/06/27 10:05:26;;;;;;;6.10;1.90;;;;;;;20.96;58.34;100420.14;105388;1258;72563;-65
2023/06/27 10:07:59;;;;;;;6.10;1.50;;;;;;;20.77;58.76;100422.48;105417;1254;69232;-67
2023/06/27 10:10:28;;;;;;;7.90;1.60;;;;;;;20.73;59.62;100423.48;105371;1258;69188;-66
2023/06/27 10:12:57;;;;;;;8.20;1.50;;;;;;;20.93;60.42;100418.20;105385;1254;74312;-65
2023/06/27 10:15:26;;;;;;;5.10;1.60;;;;;;;21.11;59.88;100420.31;105364;1258;83414;-65
2023/06/27 10:17:55;;;;;;;5.10;1.40;;;;;;;21.03;58.82;100408.49;105439;1254;73426;-65
2023/06/27 10:20:25;;;;;;;6.40;1.60;;;;;;;21.09;58.92;100404.83;105399;1254;69056;-65
2023/06/27 10:22:54;;;;;;;7.10;1.30;;;;;;;21.44;59.09;100402.34;105370;1258;69533;-65
2023/06/27 10:25:22;;;;;;;7.20;1.50;;;;;;;21.70;57.70;100402.33;105397;1258;72615;-65
2023/06/27 10:28:04;;;;;;;5.50;1.40;;;;;;;21.75;56.82;100407.81;105388;1256;83590;-64
2023/06/27 10:30:35;;;;;;;3.50;1.60;;;;;;;21.65;55.93;100408.41;105336;1255;73459;-64
2023/06/27 10:33:21;;;;;;;6.00;1.50;;;;;;;21.70;56.06;100407.50;105391;1254;69130;-65
2023/06/27 10:35:57;;;;;;;5.30;1.70;;;;;;;22.03;56.67;100406.98;105381;1254;69074;-64
2023/06/27 10:38:34;;;;;;;6.10;1.80;;;;;;;22.35;56.51;100407.68;105384;1255;74018;-64
2023/06/27 10:41:06;;;;;;;5.60;1.70;;;;;;;22.61;55.85;100399.23;105394;1258;82667;-65
2023/06/27 10:43:40;;;;;;;4.40;1.70;;;;;;;22.87;54.88;100403.84;105357;1258;73566;-65
2023/06/27 10:46:10;;;;;;;3.90;1.40;;;;;;;23.05;54.07;100400.36;105384;1254;69171;-66
2023/06/27 10:48:47;;;;;;;6.50;1.20;;;;;;;23.30;53.09;100398.60;105331;1256;69103;-65
2023/06/27 10:51:17;;;;;;;3.90;1.60;;;;;;;23.59;52.51;100398.30;105208;1259;73856;-65
2023/06/27 10:54:08;;;;;;;5.40;1.50;;;;;;;23.48;51.05;100393.41;105367;1254;82575;-65
2023/06/27 10:56:41;;;;;;;9.00;1.70;;;;;;;23.28;51.69;100400.55;105297;1254;73704;-66
2023/06/27 10:59:16;;;;;;;7.30;2.10;;;;;;;23.06;51.40;100393.83;105366;1255;69206;-66
2023/06/27 11:02:02;;;;;;;5.90;1.50;;;;;;;23.19;51.57;100389.27;105298;1258;69195;-66
2023/06/27 11:04:42;;;;;;;5.50;1.30;;;;;;;23.61;51.52;100382.61;105255;1258;74111;-65
2023/06/27 11:07:20;;;;;;;4.90;1.40;;;;;;;23.86;51.25;100389.72;105353;1258;83039;-65
2023/06/27 11:09:54;;;;;;;6.90;1.60;;;;;;;23.98;50.19;100398.84;105405;1257;73924;-65
2023/06/27 11:12:32;;;;;;;5.10;1.70;;;;;;;23.61;49.44;100399.75;105412;1257;69120;-66
2023/06/27 11:15:02;;;;;;;8.00;2.00;;;;;;;23.45;49.04;100401.06;105472;1255;69187;-66
2023/06/27 11:17:35;;;;;;;;;;;;;;;23.74;49.30;100395.15;105434;1253;73950;-66
2023/06/27 11:20:06;;;;;;;4.30;1.40;;;;;;;23.74;48.76;100409.05;105473;1253;83316;-65
2023/06/27 11:22:34;;;;;;;5.30;1.40;;;;;;;23.36;48.06;100409.80;105458;1257;72718;-66
2023/06/27 11:25:12;;;;;;;4.30;1.00;;;;;;;23.30;47.99;100410.89;105542;1253;69288;-65